HELX

Luxor International Airport

Luxor, Egypt
TAF HELX 180500Z 1806/1912 VRB03KT CAVOK
Issued Valid From Valid To
Oct-18 @ 05:00 UTC
(7 hours ago)
Oct-18 @ 06:00 UTC
(6 hours ago)
Oct-19 @ 12:00 UTC
(in 24 hours)
Oct-18 @ 06:00 to Oct-19 @ 12:00
TAF HELX 180500Z 1806/1912 VRB03KT CAVOK
Wind Visibility Clouds Conditions
Variable at 3 knots 10,000+ meters
  • No significant clouds
TAF HELX 180500Z 1806/1912 VRB03KT CAVOK
Issued Oct-18 @ 05:00 UTC
(7 hours ago)
Valid From Oct-18 @ 06:00 UTC
(6 hours ago)
Valid To Oct-19 @ 12:00 UTC
(in 24 hours)
Oct-18 @ 06:00 - Oct-19 @ 12:00
Wind Visibility
Variable at 3 knots 10,000+ meters
Clouds
  • No significant clouds
Conditions